sensor_id;sensor_type;location;lat;lon;timestamp;temperature;humidity
24217;DHT22;12356;49.386;8.688;2022-12-29T00:01:18;11.80;23.10
24217;DHT22;12356;49.386;8.688;2022-12-29T00:03:49;11.80;23.10
24217;DHT22;12356;49.386;8.688;2022-12-29T00:06:20;11.80;23.10
24217;DHT22;12356;49.386;8.688;2022-12-29T00:08:50;11.80;23.20
24217;DHT22;12356;49.386;8.688;2022-12-29T00:11:24;11.80;22.90
24217;DHT22;12356;49.386;8.688;2022-12-29T00:13:55;11.90;22.70
24217;DHT22;12356;49.386;8.688;2022-12-29T00:16:45;11.90;22.70
24217;DHT22;12356;49.386;8.688;2022-12-29T00:19:15;11.90;23.50
24217;DHT22;12356;49.386;8.688;2022-12-29T00:22:05;11.90;23.10
24217;DHT22;12356;49.386;8.688;2022-12-29T00:24:55;11.90;23.40
24217;DHT22;12356;49.386;8.688;2022-12-29T00:27:32;11.80;23.40
24217;DHT22;12356;49.386;8.688;2022-12-29T00:30:38;11.80;23.80
24217;DHT22;12356;49.386;8.688;2022-12-29T00:33:31;11.80;23.20
24217;DHT22;12356;49.386;8.688;2022-12-29T00:36:33;11.80;23.60
24217;DHT22;12356;49.386;8.688;2022-12-29T00:39:09;11.80;23.50
24217;DHT22;12356;49.386;8.688;2022-12-29T00:42:07;11.80;24.20
24217;DHT22;12356;49.386;8.688;2022-12-29T00:45:01;11.80;24.30
24217;DHT22;12356;49.386;8.688;2022-12-29T00:47:31;11.80;24.90
24217;DHT22;12356;49.386;8.688;2022-12-29T00:50:02;11.70;24.80
24217;DHT22;12356;49.386;8.688;2022-12-29T00:52:33;11.70;24.70
24217;DHT22;12356;49.386;8.688;2022-12-29T00:55:04;11.70;24.30
24217;DHT22;12356;49.386;8.688;2022-12-29T00:57:34;11.80;24.30
24217;DHT22;12356;49.386;8.688;2022-12-29T01:00:05;11.80;23.90
24217;DHT22;12356;49.386;8.688;2022-12-29T01:02:36;11.80;23.90
24217;DHT22;12356;49.386;8.688;2022-12-29T01:05:07;11.80;23.80
24217;DHT22;12356;49.386;8.688;2022-12-29T01:07:38;11.80;23.90
24217;DHT22;12356;49.386;8.688;2022-12-29T01:10:08;11.80;24.20
24217;DHT22;12356;49.386;8.688;2022-12-29T01:12:42;11.80;24.50
24217;DHT22;12356;49.386;8.688;2022-12-29T01:15:14;11.80;24.20
24217;DHT22;12356;49.386;8.688;2022-12-29T01:17:45;11.80;24.30
24217;DHT22;12356;49.386;8.688;2022-12-29T01:20:18;11.80;24.50
24217;DHT22;12356;49.386;8.688;2022-12-29T01:22:49;11.80;24.70
24217;DHT22;12356;49.386;8.688;2022-12-29T01:25:20;11.90;24.60
24217;DHT22;12356;49.386;8.688;2022-12-29T01:27:50;11.90;24.90
24217;DHT22;12356;49.386;8.688;2022-12-29T01:30:21;11.90;25.40
24217;DHT22;12356;49.386;8.688;2022-12-29T01:32:52;11.90;25.90
24217;DHT22;12356;49.386;8.688;2022-12-29T01:35:23;12.00;26.00
24217;DHT22;12356;49.386;8.688;2022-12-29T01:37:53;12.00;26.10
24217;DHT22;12356;49.386;8.688;2022-12-29T01:40:24;12.10;26.60
24217;DHT22;12356;49.386;8.688;2022-12-29T01:42:56;12.00;26.50
24217;DHT22;12356;49.386;8.688;2022-12-29T01:45:27;12.10;27.20
24217;DHT22;12356;49.386;8.688;2022-12-29T01:48:00;12.00;27.90
24217;DHT22;12356;49.386;8.688;2022-12-29T01:50:34;12.10;28.20
24217;DHT22;12356;49.386;8.688;2022-12-29T01:53:09;12.10;28.70
24217;DHT22;12356;49.386;8.688;2022-12-29T01:55:44;12.10;28.50
24217;DHT22;12356;49.386;8.688;2022-12-29T01:58:19;12.20;29.50
24217;DHT22;12356;49.386;8.688;2022-12-29T02:00:51;12.10;29.00
24217;DHT22;12356;49.386;8.688;2022-12-29T02:03:22;12.20;29.30
24217;DHT22;12356;49.386;8.688;2022-12-29T02:06:02;12.20;30.10
24217;DHT22;12356;49.386;8.688;2022-12-29T02:08:34;12.20;33.20
24217;DHT22;12356;49.386;8.688;2022-12-29T02:11:05;12.20;34.30
24217;DHT22;12356;49.386;8.688;2022-12-29T02:13:36;12.30;35.30
24217;DHT22;12356;49.386;8.688;2022-12-29T02:36:07;12.10;37.90
24217;DHT22;12356;49.386;8.688;2022-12-29T02:41:34;12.10;37.50
24217;DHT22;12356;49.386;8.688;2022-12-29T02:46:59;12.10;36.70
24217;DHT22;12356;49.386;8.688;2022-12-29T02:49:36;12.10;37.40
24217;DHT22;12356;49.386;8.688;2022-12-29T02:52:18;12.10;38.50
24217;DHT22;12356;49.386;8.688;2022-12-29T02:54:50;12.00;38.70
24217;DHT22;12356;49.386;8.688;2022-12-29T03:00:05;12.00;39.30
24217;DHT22;12356;49.386;8.688;2022-12-29T03:11:10;12.00;39.60
24217;DHT22;12356;49.386;8.688;2022-12-29T03:14:10;12.00;39.60
24217;DHT22;12356;49.386;8.688;2022-12-29T03:17:17;12.00;39.90
24217;DHT22;12356;49.386;8.688;2022-12-29T03:19:52;12.00;39.70
24217;DHT22;12356;49.386;8.688;2022-12-29T03:22:29;12.00;39.90
24217;DHT22;12356;49.386;8.688;2022-12-29T03:27:50;11.90;40.00
24217;DHT22;12356;49.386;8.688;2022-12-29T03:30:24;11.90;39.90
24217;DHT22;12356;49.386;8.688;2022-12-29T03:32:58;11.90;39.80
24217;DHT22;12356;49.386;8.688;2022-12-29T03:35:32;11.90;39.90
24217;DHT22;12356;49.386;8.688;2022-12-29T03:38:15;11.90;39.90
24217;DHT22;12356;49.386;8.688;2022-12-29T03:40:49;11.80;39.60
24217;DHT22;12356;49.386;8.688;2022-12-29T03:43:23;11.80;39.50
24217;DHT22;12356;49.386;8.688;2022-12-29T03:45:53;11.90;39.60
24217;DHT22;12356;49.386;8.688;2022-12-29T03:48:24;11.80;39.40
24217;DHT22;12356;49.386;8.688;2022-12-29T03:50:55;11.90;38.80
24217;DHT22;12356;49.386;8.688;2022-12-29T03:53:25;11.90;38.50
24217;DHT22;12356;49.386;8.688;2022-12-29T03:55:56;11.90;38.50
24217;DHT22;12356;49.386;8.688;2022-12-29T03:58:26;11.90;38.10
24217;DHT22;12356;49.386;8.688;2022-12-29T04:00:57;11.90;38.10
24217;DHT22;12356;49.386;8.688;2022-12-29T04:03:28;11.90;37.60
24217;DHT22;12356;49.386;8.688;2022-12-29T04:05:58;11.90;37.20
24217;DHT22;12356;49.386;8.688;2022-12-29T04:08:29;11.90;38.30
24217;DHT22;12356;49.386;8.688;2022-12-29T04:11:00;11.90;37.90
24217;DHT22;12356;49.386;8.688;2022-12-29T04:13:30;11.90;36.90
24217;DHT22;12356;49.386;8.688;2022-12-29T04:16:01;12.00;36.30
24217;DHT22;12356;49.386;8.688;2022-12-29T04:18:31;11.90;35.80
24217;DHT22;12356;49.386;8.688;2022-12-29T04:21:02;11.90;34.70
24217;DHT22;12356;49.386;8.688;2022-12-29T04:23:35;11.90;35.10
24217;DHT22;12356;49.386;8.688;2022-12-29T04:26:06;12.00;33.90
24217;DHT22;12356;49.386;8.688;2022-12-29T04:28:38;12.10;33.70
24217;DHT22;12356;49.386;8.688;2022-12-29T04:31:09;12.00;33.20
24217;DHT22;12356;49.386;8.688;2022-12-29T04:33:41;12.00;32.90
24217;DHT22;12356;49.386;8.688;2022-12-29T04:36:12;12.00;33.00
24217;DHT22;12356;49.386;8.688;2022-12-29T04:38:43;12.10;32.70
24217;DHT22;12356;49.386;8.688;2022-12-29T04:41:14;12.10;32.50
24217;DHT22;12356;49.386;8.688;2022-12-29T04:43:44;12.10;32.30
24217;DHT22;12356;49.386;8.688;2022-12-29T04:46:15;12.10;32.40
24217;DHT22;12356;49.386;8.688;2022-12-29T04:48:46;12.10;32.40
24217;DHT22;12356;49.386;8.688;2022-12-29T04:51:17;12.10;31.40
24217;DHT22;12356;49.386;8.688;2022-12-29T04:53:47;12.20;31.20
24217;DHT22;12356;49.386;8.688;2022-12-29T04:56:18;12.20;31.00
24217;DHT22;12356;49.386;8.688;2022-12-29T04:58:49;12.20;30.90
24217;DHT22;12356;49.386;8.688;2022-12-29T05:01:19;12.20;30.80
24217;DHT22;12356;49.386;8.688;2022-12-29T05:03:50;12.20;30.30
24217;DHT22;12356;49.386;8.688;2022-12-29T05:06:22;12.20;29.90
24217;DHT22;12356;49.386;8.688;2022-12-29T05:08:52;12.30;30.00
24217;DHT22;12356;49.386;8.688;2022-12-29T05:11:23;12.30;30.50
24217;DHT22;12356;49.386;8.688;2022-12-29T05:13:55;12.20;30.40
24217;DHT22;12356;49.386;8.688;2022-12-29T05:16:26;12.20;30.60
24217;DHT22;12356;49.386;8.688;2022-12-29T05:18:56;12.20;30.60
24217;DHT22;12356;49.386;8.688;2022-12-29T05:21:27;12.20;30.30
24217;DHT22;12356;49.386;8.688;2022-12-29T05:23:58;12.20;29.90
24217;DHT22;12356;49.386;8.688;2022-12-29T05:26:28;12.20;30.00
24217;DHT22;12356;49.386;8.688;2022-12-29T05:28:59;12.20;29.60
24217;DHT22;12356;49.386;8.688;2022-12-29T05:31:31;12.20;29.10
24217;DHT22;12356;49.386;8.688;2022-12-29T05:34:02;12.20;29.50
24217;DHT22;12356;49.386;8.688;2022-12-29T05:36:33;12.20;29.40
24217;DHT22;12356;49.386;8.688;2022-12-29T05:39:05;12.20;29.40
24217;DHT22;12356;49.386;8.688;2022-12-29T05:41:38;12.20;28.80
24217;DHT22;12356;49.386;8.688;2022-12-29T05:44:10;12.20;28.50
24217;DHT22;12356;49.386;8.688;2022-12-29T05:46:40;12.30;28.90
24217;DHT22;12356;49.386;8.688;2022-12-29T05:49:11;12.30;28.90
24217;DHT22;12356;49.386;8.688;2022-12-29T05:51:42;12.30;28.90
24217;DHT22;12356;49.386;8.688;2022-12-29T05:54:13;12.30;29.10
24217;DHT22;12356;49.386;8.688;2022-12-29T05:56:43;12.20;29.20
24217;DHT22;12356;49.386;8.688;2022-12-29T05:59:14;12.20;29.00
24217;DHT22;12356;49.386;8.688;2022-12-29T06:01:45;12.30;29.40
24217;DHT22;12356;49.386;8.688;2022-12-29T06:04:16;12.30;29.20
24217;DHT22;12356;49.386;8.688;2022-12-29T06:06:47;12.30;29.10
24217;DHT22;12356;49.386;8.688;2022-12-29T06:09:18;12.30;28.90
24217;DHT22;12356;49.386;8.688;2022-12-29T06:11:48;12.30;28.70
24217;DHT22;12356;49.386;8.688;2022-12-29T06:14:19;12.30;29.20
24217;DHT22;12356;49.386;8.688;2022-12-29T06:16:50;12.30;29.10
24217;DHT22;12356;49.386;8.688;2022-12-29T06:19:21;12.30;28.80
24217;DHT22;12356;49.386;8.688;2022-12-29T06:21:51;12.30;28.90
24217;DHT22;12356;49.386;8.688;2022-12-29T06:24:23;12.30;28.80
24217;DHT22;12356;49.386;8.688;2022-12-29T06:26:53;12.20;29.20
24217;DHT22;12356;49.386;8.688;2022-12-29T06:29:24;12.20;28.70
24217;DHT22;12356;49.386;8.688;2022-12-29T06:31:55;12.20;28.40
24217;DHT22;12356;49.386;8.688;2022-12-29T06:34:28;12.30;28.20
24217;DHT22;12356;49.386;8.688;2022-12-29T06:37:00;12.20;28.70
24217;DHT22;12356;49.386;8.688;2022-12-29T06:39:31;12.30;28.20
24217;DHT22;12356;49.386;8.688;2022-12-29T06:42:02;12.30;28.60
24217;DHT22;12356;49.386;8.688;2022-12-29T06:44:34;12.30;28.30
24217;DHT22;12356;49.386;8.688;2022-12-29T06:47:04;12.30;28.10
24217;DHT22;12356;49.386;8.688;2022-12-29T06:49:35;12.30;28.40
24217;DHT22;12356;49.386;8.688;2022-12-29T06:52:06;12.30;28.10
24217;DHT22;12356;49.386;8.688;2022-12-29T06:54:36;12.30;28.60
24217;DHT22;12356;49.386;8.688;2022-12-29T06:57:07;12.30;28.30
24217;DHT22;12356;49.386;8.688;2022-12-29T06:59:38;12.30;28.50
24217;DHT22;12356;49.386;8.688;2022-12-29T07:02:10;12.30;28.70
24217;DHT22;12356;49.386;8.688;2022-12-29T07:04:41;12.30;28.30
24217;DHT22;12356;49.386;8.688;2022-12-29T07:07:11;12.30;28.30
24217;DHT22;12356;49.386;8.688;2022-12-29T07:09:42;12.30;28.60
24217;DHT22;12356;49.386;8.688;2022-12-29T07:12:13;12.30;28.00
24217;DHT22;12356;49.386;8.688;2022-12-29T07:14:44;12.30;28.10
24217;DHT22;12356;49.386;8.688;2022-12-29T07:17:14;12.30;28.20
24217;DHT22;12356;49.386;8.688;2022-12-29T07:19:45;12.30;28.40
24217;DHT22;12356;49.386;8.688;2022-12-29T07:22:16;12.30;27.90
24217;DHT22;12356;49.386;8.688;2022-12-29T07:24:47;12.40;27.60
24217;DHT22;12356;49.386;8.688;2022-12-29T07:27:18;12.40;27.50
24217;DHT22;12356;49.386;8.688;2022-12-29T07:29:49;12.40;27.50
24217;DHT22;12356;49.386;8.688;2022-12-29T07:32:19;12.40;27.50
24217;DHT22;12356;49.386;8.688;2022-12-29T07:34:51;12.40;27.00
24217;DHT22;12356;49.386;8.688;2022-12-29T07:37:23;12.40;27.40
24217;DHT22;12356;49.386;8.688;2022-12-29T07:39:53;12.40;27.20
24217;DHT22;12356;49.386;8.688;2022-12-29T07:42:24;12.40;26.60
24217;DHT22;12356;49.386;8.688;2022-12-29T07:44:55;12.40;26.50
24217;DHT22;12356;49.386;8.688;2022-12-29T07:47:26;12.50;26.40
24217;DHT22;12356;49.386;8.688;2022-12-29T07:49:56;12.40;26.30
24217;DHT22;12356;49.386;8.688;2022-12-29T07:52:27;12.50;26.00
24217;DHT22;12356;49.386;8.688;2022-12-29T07:54:57;12.50;25.90
24217;DHT22;12356;49.386;8.688;2022-12-29T07:57:28;12.50;25.80
24217;DHT22;12356;49.386;8.688;2022-12-29T07:59:59;12.60;25.80
24217;DHT22;12356;49.386;8.688;2022-12-29T08:02:29;12.60;26.10
24217;DHT22;12356;49.386;8.688;2022-12-29T08:05:00;12.60;25.30
24217;DHT22;12356;49.386;8.688;2022-12-29T08:07:31;12.60;25.30
24217;DHT22;12356;49.386;8.688;2022-12-29T08:10:01;12.60;24.60
24217;DHT22;12356;49.386;8.688;2022-12-29T08:12:32;12.60;24.60
24217;DHT22;12356;49.386;8.688;2022-12-29T08:15:03;12.60;25.00
24217;DHT22;12356;49.386;8.688;2022-12-29T08:17:34;12.70;24.80
24217;DHT22;12356;49.386;8.688;2022-12-29T08:20:05;12.70;24.40
24217;DHT22;12356;49.386;8.688;2022-12-29T08:22:36;12.60;24.60
24217;DHT22;12356;49.386;8.688;2022-12-29T08:25:07;12.70;24.50
24217;DHT22;12356;49.386;8.688;2022-12-29T08:27:38;12.70;24.10
24217;DHT22;12356;49.386;8.688;2022-12-29T08:30:09;12.70;24.60
24217;DHT22;12356;49.386;8.688;2022-12-29T08:32:40;12.70;24.90
24217;DHT22;12356;49.386;8.688;2022-12-29T08:35:11;12.70;24.40
24217;DHT22;12356;49.386;8.688;2022-12-29T08:37:43;12.70;24.90
24217;DHT22;12356;49.386;8.688;2022-12-29T08:40:15;12.70;24.60
24217;DHT22;12356;49.386;8.688;2022-12-29T08:42:45;12.70;24.20
24217;DHT22;12356;49.386;8.688;2022-12-29T08:45:16;12.70;24.10
24217;DHT22;12356;49.386;8.688;2022-12-29T08:47:47;12.80;24.30
24217;DHT22;12356;49.386;8.688;2022-12-29T08:50:17;12.80;24.20
24217;DHT22;12356;49.386;8.688;2022-12-29T08:52:49;12.80;23.80
24217;DHT22;12356;49.386;8.688;2022-12-29T08:55:20;12.80;24.00
24217;DHT22;12356;49.386;8.688;2022-12-29T08:57:51;12.80;23.90
24217;DHT22;12356;49.386;8.688;2022-12-29T09:00:22;12.80;23.70
24217;DHT22;12356;49.386;8.688;2022-12-29T09:02:53;12.80;24.10
24217;DHT22;12356;49.386;8.688;2022-12-29T09:05:24;12.80;24.10
24217;DHT22;12356;49.386;8.688;2022-12-29T09:07:54;12.80;23.80
24217;DHT22;12356;49.386;8.688;2022-12-29T09:10:25;12.90;23.90
24217;DHT22;12356;49.386;8.688;2022-12-29T09:12:56;12.80;23.60
24217;DHT22;12356;49.386;8.688;2022-12-29T09:15:26;12.90;23.70
24217;DHT22;12356;49.386;8.688;2022-12-29T09:17:57;12.90;23.90
24217;DHT22;12356;49.386;8.688;2022-12-29T09:20:28;12.90;24.20
24217;DHT22;12356;49.386;8.688;2022-12-29T09:22:59;12.90;24.40
24217;DHT22;12356;49.386;8.688;2022-12-29T09:25:30;12.90;23.90
24217;DHT22;12356;49.386;8.688;2022-12-29T09:28:01;12.90;24.10
24217;DHT22;12356;49.386;8.688;2022-12-29T09:30:36;12.90;24.40
24217;DHT22;12356;49.386;8.688;2022-12-29T09:33:06;12.90;24.20
24217;DHT22;12356;49.386;8.688;2022-12-29T09:35:38;12.90;23.90
24217;DHT22;12356;49.386;8.688;2022-12-29T09:38:11;12.90;24.50
24217;DHT22;12356;49.386;8.688;2022-12-29T09:40:44;12.90;24.40
24217;DHT22;12356;49.386;8.688;2022-12-29T09:46:24;12.90;24.70
24217;DHT22;12356;49.386;8.688;2022-12-29T09:52:11;12.80;25.10
24217;DHT22;12356;49.386;8.688;2022-12-29T09:57:49;12.80;27.00
24217;DHT22;12356;49.386;8.688;2022-12-29T10:00:20;12.80;28.60
24217;DHT22;12356;49.386;8.688;2022-12-29T10:03:03;12.70;30.50
24217;DHT22;12356;49.386;8.688;2022-12-29T10:05:53;12.70;32.20
24217;DHT22;12356;49.386;8.688;2022-12-29T10:08:37;12.60;34.50
24217;DHT22;12356;49.386;8.688;2022-12-29T10:17:57;12.50;34.80
24217;DHT22;12356;49.386;8.688;2022-12-29T10:20:54;12.60;35.90
24217;DHT22;12356;49.386;8.688;2022-12-29T10:23:49;12.60;35.40
24217;DHT22;12356;49.386;8.688;2022-12-29T10:26:26;12.60;35.30
24217;DHT22;12356;49.386;8.688;2022-12-29T10:29:05;12.60;34.00
24217;DHT22;12356;49.386;8.688;2022-12-29T10:31:42;12.50;34.80
24217;DHT22;12356;49.386;8.688;2022-12-29T10:34:26;12.60;34.50
24217;DHT22;12356;49.386;8.688;2022-12-29T10:37:03;12.60;33.90
24217;DHT22;12356;49.386;8.688;2022-12-29T10:39:41;12.70;33.70
24217;DHT22;12356;49.386;8.688;2022-12-29T10:44:59;12.70;33.70
24217;DHT22;12356;49.386;8.688;2022-12-29T10:47:33;12.80;32.60
24217;DHT22;12356;49.386;8.688;2022-12-29T10:50:05;12.80;32.80
24217;DHT22;12356;49.386;8.688;2022-12-29T10:52:38;12.80;32.70
24217;DHT22;12356;49.386;8.688;2022-12-29T10:55:17;12.80;32.50
24217;DHT22;12356;49.386;8.688;2022-12-29T10:57:49;12.80;32.80
24217;DHT22;12356;49.386;8.688;2022-12-29T11:00:21;12.90;32.40
24217;DHT22;12356;49.386;8.688;2022-12-29T11:06:02;12.80;31.90
24217;DHT22;12356;49.386;8.688;2022-12-29T11:08:38;12.80;31.20
24217;DHT22;12356;49.386;8.688;2022-12-29T11:11:09;12.90;31.80
24217;DHT22;12356;49.386;8.688;2022-12-29T11:13:55;12.90;30.90
24217;DHT22;12356;49.386;8.688;2022-12-29T11:16:31;12.90;30.50
24217;DHT22;12356;49.386;8.688;2022-12-29T11:19:03;13.00;30.90
24217;DHT22;12356;49.386;8.688;2022-12-29T11:21:36;13.00;30.50
24217;DHT22;12356;49.386;8.688;2022-12-29T11:24:33;13.00;29.50
24217;DHT22;12356;49.386;8.688;2022-12-29T11:27:21;12.90;29.70
24217;DHT22;12356;49.386;8.688;2022-12-29T11:29:54;12.90;29.60
24217;DHT22;12356;49.386;8.688;2022-12-29T11:32:25;12.90;30.00
24217;DHT22;12356;49.386;8.688;2022-12-29T11:34:58;12.90;29.90
24217;DHT22;12356;49.386;8.688;2022-12-29T11:37:37;13.00;30.30
24217;DHT22;12356;49.386;8.688;2022-12-29T11:40:20;13.00;30.40
24217;DHT22;12356;49.386;8.688;2022-12-29T11:42:55;13.00;30.80
24217;DHT22;12356;49.386;8.688;2022-12-29T11:45:30;13.00;30.60
24217;DHT22;12356;49.386;8.688;2022-12-29T11:48:18;13.00;31.10
24217;DHT22;12356;49.386;8.688;2022-12-29T11:50:53;13.00;31.20
24217;DHT22;12356;49.386;8.688;2022-12-29T11:53:37;13.00;30.90
24217;DHT22;12356;49.386;8.688;2022-12-29T11:56:12;13.00;30.40
24217;DHT22;12356;49.386;8.688;2022-12-29T11:58:44;13.00;30.20
24217;DHT22;12356;49.386;8.688;2022-12-29T12:01:19;13.00;29.90
24217;DHT22;12356;49.386;8.688;2022-12-29T12:04:14;13.10;28.40
24217;DHT22;12356;49.386;8.688;2022-12-29T12:07:03;13.10;27.90
24217;DHT22;12356;49.386;8.688;2022-12-29T12:12:48;13.00;24.60
24217;DHT22;12356;49.386;8.688;2022-12-29T12:15:39;13.00;24.60
24217;DHT22;12356;49.386;8.688;2022-12-29T12:18:32;13.00;25.30
24217;DHT22;12356;49.386;8.688;2022-12-29T12:29:52;12.90;24.60
24217;DHT22;12356;49.386;8.688;2022-12-29T12:35:16;12.90;25.30
24217;DHT22;12356;49.386;8.688;2022-12-29T12:38:12;12.90;26.10
24217;DHT22;12356;49.386;8.688;2022-12-29T12:47:14;12.90;26.70
24217;DHT22;12356;49.386;8.688;2022-12-29T12:59:22;12.80;29.20
24217;DHT22;12356;49.386;8.688;2022-12-29T13:19:18;12.20;48.10
24217;DHT22;12356;49.386;8.688;2022-12-29T13:25:13;12.10;55.30
24217;DHT22;12356;49.386;8.688;2022-12-29T13:33:56;12.00;64.30
24217;DHT22;12356;49.386;8.688;2022-12-29T13:36:45;12.00;65.00
24217;DHT22;12356;49.386;8.688;2022-12-29T13:39:23;12.00;67.40
24217;DHT22;12356;49.386;8.688;2022-12-29T13:41:57;12.00;69.00
24217;DHT22;12356;49.386;8.688;2022-12-29T13:44:31;11.90;69.80
24217;DHT22;12356;49.386;8.688;2022-12-29T13:49:57;11.90;71.00
24217;DHT22;12356;49.386;8.688;2022-12-29T13:58:13;11.80;72.10
24217;DHT22;12356;49.386;8.688;2022-12-29T14:06:25;11.80;73.60
24217;DHT22;12356;49.386;8.688;2022-12-29T14:09:00;11.70;74.00
24217;DHT22;12356;49.386;8.688;2022-12-29T14:11:35;11.70;74.70
24217;DHT22;12356;49.386;8.688;2022-12-29T14:14:27;11.60;75.80
24217;DHT22;12356;49.386;8.688;2022-12-29T14:17:11;11.60;75.40
24217;DHT22;12356;49.386;8.688;2022-12-29T14:19:45;11.60;75.30
24217;DHT22;12356;49.386;8.688;2022-12-29T14:22:23;11.60;75.20
24217;DHT22;12356;49.386;8.688;2022-12-29T14:24:54;11.60;75.20
24217;DHT22;12356;49.386;8.688;2022-12-29T14:30:01;11.60;75.40
24217;DHT22;12356;49.386;8.688;2022-12-29T14:35:40;11.60;76.00
24217;DHT22;12356;49.386;8.688;2022-12-29T14:38:22;11.60;75.80
24217;DHT22;12356;49.386;8.688;2022-12-29T14:41:27;11.50;72.90
24217;DHT22;12356;49.386;8.688;2022-12-29T14:44:17;11.50;70.00
24217;DHT22;12356;49.386;8.688;2022-12-29T14:49:31;11.40;68.10
24217;DHT22;12356;49.386;8.688;2022-12-29T14:52:20;11.40;69.00
24217;DHT22;12356;49.386;8.688;2022-12-29T14:54:59;11.30;68.80
24217;DHT22;12356;49.386;8.688;2022-12-29T14:57:51;11.30;67.70
24217;DHT22;12356;49.386;8.688;2022-12-29T15:00:26;11.30;70.80
24217;DHT22;12356;49.386;8.688;2022-12-29T15:05:55;11.20;73.00
24217;DHT22;12356;49.386;8.688;2022-12-29T15:08:34;11.30;72.80
24217;DHT22;12356;49.386;8.688;2022-12-29T15:14:00;11.20;72.40
24217;DHT22;12356;49.386;8.688;2022-12-29T15:16:34;11.20;72.90
24217;DHT22;12356;49.386;8.688;2022-12-29T15:19:21;11.10;74.00
24217;DHT22;12356;49.386;8.688;2022-12-29T15:21:53;11.10;76.00
24217;DHT22;12356;49.386;8.688;2022-12-29T15:24:24;11.10;75.50
24217;DHT22;12356;49.386;8.688;2022-12-29T15:26:55;11.10;74.90
24217;DHT22;12356;49.386;8.688;2022-12-29T15:29:43;11.10;75.40
24217;DHT22;12356;49.386;8.688;2022-12-29T15:34:48;11.10;76.60
24217;DHT22;12356;49.386;8.688;2022-12-29T15:37:24;11.00;76.70
24217;DHT22;12356;49.386;8.688;2022-12-29T15:39:56;11.00;77.30
24217;DHT22;12356;49.386;8.688;2022-12-29T15:42:43;11.10;77.70
24217;DHT22;12356;49.386;8.688;2022-12-29T15:45:16;11.10;77.70
24217;DHT22;12356;49.386;8.688;2022-12-29T15:47:49;11.00;77.10
24217;DHT22;12356;49.386;8.688;2022-12-29T15:50:32;11.00;77.00
24217;DHT22;12356;49.386;8.688;2022-12-29T15:53:10;10.90;77.30
24217;DHT22;12356;49.386;8.688;2022-12-29T15:55:42;11.00;77.70
24217;DHT22;12356;49.386;8.688;2022-12-29T15:58:28;11.00;77.10
24217;DHT22;12356;49.386;8.688;2022-12-29T16:01:01;10.90;76.10
24217;DHT22;12356;49.386;8.688;2022-12-29T16:03:33;10.80;76.10
24217;DHT22;12356;49.386;8.688;2022-12-29T16:06:21;10.70;76.30
24217;DHT22;12356;49.386;8.688;2022-12-29T16:11:38;10.70;77.20
24217;DHT22;12356;49.386;8.688;2022-12-29T16:14:19;10.70;78.20
24217;DHT22;12356;49.386;8.688;2022-12-29T16:16:51;10.70;77.80
24217;DHT22;12356;49.386;8.688;2022-12-29T16:19:33;10.70;77.90
24217;DHT22;12356;49.386;8.688;2022-12-29T16:22:11;10.70;78.30
24217;DHT22;12356;49.386;8.688;2022-12-29T16:24:42;10.70;78.20
24217;DHT22;12356;49.386;8.688;2022-12-29T16:27:28;10.70;78.60
24217;DHT22;12356;49.386;8.688;2022-12-29T16:30:05;10.80;79.40
24217;DHT22;12356;49.386;8.688;2022-12-29T16:32:53;10.80;79.50
24217;DHT22;12356;49.386;8.688;2022-12-29T16:35:46;10.80;79.80
24217;DHT22;12356;49.386;8.688;2022-12-29T16:38:22;10.80;79.80
24217;DHT22;12356;49.386;8.688;2022-12-29T16:40:58;10.70;80.70
24217;DHT22;12356;49.386;8.688;2022-12-29T16:43:31;10.80;81.10
24217;DHT22;12356;49.386;8.688;2022-12-29T16:46:26;10.70;81.40
24217;DHT22;12356;49.386;8.688;2022-12-29T16:48:57;10.80;81.30
24217;DHT22;12356;49.386;8.688;2022-12-29T16:51:31;10.80;81.50
24217;DHT22;12356;49.386;8.688;2022-12-29T16:54:03;10.80;81.60
24217;DHT22;12356;49.386;8.688;2022-12-29T16:56:35;10.90;81.70
24217;DHT22;12356;49.386;8.688;2022-12-29T17:00:01;10.90;81.60
24217;DHT22;12356;49.386;8.688;2022-12-29T17:02:27;10.90;81.60
24217;DHT22;12356;49.386;8.688;2022-12-29T17:04:58;10.80;81.50
24217;DHT22;12356;49.386;8.688;2022-12-29T17:07:30;10.80;81.50
24217;DHT22;12356;49.386;8.688;2022-12-29T17:10:00;10.70;81.50
24217;DHT22;12356;49.386;8.688;2022-12-29T17:12:33;10.80;82.00
24217;DHT22;12356;49.386;8.688;2022-12-29T17:15:24;10.70;82.10
24217;DHT22;12356;49.386;8.688;2022-12-29T17:30:03;10.80;82.00
24217;DHT22;12356;49.386;8.688;2022-12-29T17:32:34;10.70;82.30
24217;DHT22;12356;49.386;8.688;2022-12-29T17:35:05;10.80;82.50
24217;DHT22;12356;49.386;8.688;2022-12-29T17:37:37;10.70;82.30
24217;DHT22;12356;49.386;8.688;2022-12-29T17:40:12;10.80;82.20
24217;DHT22;12356;49.386;8.688;2022-12-29T17:42:48;10.70;81.50
24217;DHT22;12356;49.386;8.688;2022-12-29T17:45:29;10.70;81.80
24217;DHT22;12356;49.386;8.688;2022-12-29T17:48:01;10.70;81.50
24217;DHT22;12356;49.386;8.688;2022-12-29T17:50:31;10.70;81.40
24217;DHT22;12356;49.386;8.688;2022-12-29T17:53:05;10.80;80.70
24217;DHT22;12356;49.386;8.688;2022-12-29T17:55:36;10.80;80.50
24217;DHT22;12356;49.386;8.688;2022-12-29T17:58:27;10.70;80.50
24217;DHT22;12356;49.386;8.688;2022-12-29T18:00:59;10.70;81.20
24217;DHT22;12356;49.386;8.688;2022-12-29T18:03:39;10.80;80.70
24217;DHT22;12356;49.386;8.688;2022-12-29T18:06:11;10.70;80.90
24217;DHT22;12356;49.386;8.688;2022-12-29T18:08:42;10.70;80.50
24217;DHT22;12356;49.386;8.688;2022-12-29T18:11:25;10.70;81.30
24217;DHT22;12356;49.386;8.688;2022-12-29T18:13:56;10.70;80.60
24217;DHT22;12356;49.386;8.688;2022-12-29T18:16:27;10.70;80.50
24217;DHT22;12356;49.386;8.688;2022-12-29T18:18:58;10.70;80.40
24217;DHT22;12356;49.386;8.688;2022-12-29T18:21:29;10.70;80.20
24217;DHT22;12356;49.386;8.688;2022-12-29T18:24:00;10.70;80.10
24217;DHT22;12356;49.386;8.688;2022-12-29T18:26:31;10.70;80.50
24217;DHT22;12356;49.386;8.688;2022-12-29T18:29:04;10.70;79.60
24217;DHT22;12356;49.386;8.688;2022-12-29T18:31:36;10.80;79.50
24217;DHT22;12356;49.386;8.688;2022-12-29T18:34:12;10.70;78.70
24217;DHT22;12356;49.386;8.688;2022-12-29T18:36:43;10.60;78.40
24217;DHT22;12356;49.386;8.688;2022-12-29T18:39:14;10.60;78.30
24217;DHT22;12356;49.386;8.688;2022-12-29T18:41:47;10.50;78.50
24217;DHT22;12356;49.386;8.688;2022-12-29T18:44:17;10.50;78.70
24217;DHT22;12356;49.386;8.688;2022-12-29T18:46:49;10.50;79.00
24217;DHT22;12356;49.386;8.688;2022-12-29T18:49:20;10.40;78.60
24217;DHT22;12356;49.386;8.688;2022-12-29T18:51:51;10.50;78.40
24217;DHT22;12356;49.386;8.688;2022-12-29T18:54:28;10.50;78.30
24217;DHT22;12356;49.386;8.688;2022-12-29T18:56:59;10.30;78.50
24217;DHT22;12356;49.386;8.688;2022-12-29T18:59:30;10.40;78.80
24217;DHT22;12356;49.386;8.688;2022-12-29T19:02:01;10.40;79.50